sensor_id;sensor_type;location;lat;lon;timestamp;pressure;altitude;pressure_sealevel;temperature;humidity
10167;BME280;62970;53.130;8.244;2023-02-12T00:00:24;103674.31;;;6.88;76.58
10167;BME280;62970;53.130;8.244;2023-02-12T00:02:56;103667.28;;;6.85;76.56
10167;BME280;62970;53.130;8.244;2023-02-12T00:05:25;103673.31;;;6.84;76.39
10167;BME280;62970;53.130;8.244;2023-02-12T00:07:54;103675.84;;;6.83;76.56
10167;BME280;62970;53.130;8.244;2023-02-12T00:10:24;103681.84;;;6.82;76.42
10167;BME280;62970;53.130;8.244;2023-02-12T00:12:56;103677.44;;;6.79;76.33
10167;BME280;62970;53.130;8.244;2023-02-12T00:15:28;103682.56;;;6.78;76.10
10167;BME280;62970;53.130;8.244;2023-02-12T00:17:59;103686.00;;;6.77;76.64
10167;BME280;62970;53.130;8.244;2023-02-12T00:20:28;103692.00;;;6.76;76.46
10167;BME280;62970;53.130;8.244;2023-02-12T00:22:58;103690.19;;;6.73;76.61
10167;BME280;62970;53.130;8.244;2023-02-12T00:25:27;103697.06;;;6.73;76.24
10167;BME280;62970;53.130;8.244;2023-02-12T00:27:56;103688.34;;;6.71;76.52
10167;BME280;62970;53.130;8.244;2023-02-12T00:30:31;103680.50;;;6.69;76.74
10167;BME280;62970;53.130;8.244;2023-02-12T00:33:00;103690.94;;;6.71;76.67
10167;BME280;62970;53.130;8.244;2023-02-12T00:35:29;103698.66;;;6.69;76.87
10167;BME280;62970;53.130;8.244;2023-02-12T00:38:00;103701.31;;;6.71;76.71
10167;BME280;62970;53.130;8.244;2023-02-12T00:40:30;103704.78;;;6.71;76.70
10167;BME280;62970;53.130;8.244;2023-02-12T00:43:00;103703.97;;;6.72;76.56
10167;BME280;62970;53.130;8.244;2023-02-12T00:45:34;103692.59;;;6.68;76.30
10167;BME280;62970;53.130;8.244;2023-02-12T00:48:04;103703.78;;;6.67;76.30
10167;BME280;62970;53.130;8.244;2023-02-12T00:50:34;103691.66;;;6.66;76.90
10167;BME280;62970;53.130;8.244;2023-02-12T00:53:03;103702.03;;;6.66;76.50
10167;BME280;62970;53.130;8.244;2023-02-12T00:55:33;103710.63;;;6.65;76.59
10167;BME280;62970;53.130;8.244;2023-02-12T00:58:03;103711.50;;;6.66;76.52
10167;BME280;62970;53.130;8.244;2023-02-12T01:00:37;103712.34;;;6.65;76.75
10167;BME280;62970;53.130;8.244;2023-02-12T01:03:09;103710.63;;;6.65;76.64
10167;BME280;62970;53.130;8.244;2023-02-12T01:05:38;103708.91;;;6.66;76.48
10167;BME280;62970;53.130;8.244;2023-02-12T01:08:11;103709.75;;;6.65;76.82
10167;BME280;62970;53.130;8.244;2023-02-12T01:10:43;103721.00;;;6.65;76.44
10167;BME280;62970;53.130;8.244;2023-02-12T01:13:14;103723.59;;;6.65;76.63
10167;BME280;62970;53.130;8.244;2023-02-12T01:15:47;103732.19;;;6.64;76.42
10167;BME280;62970;53.130;8.244;2023-02-12T01:18:19;103724.41;;;6.64;76.43
10167;BME280;62970;53.130;8.244;2023-02-12T01:20:49;103726.19;;;6.65;76.62
10167;BME280;62970;53.130;8.244;2023-02-12T01:23:18;103727.91;;;6.65;76.57
10167;BME280;62970;53.130;8.244;2023-02-12T01:25:47;103729.53;;;6.63;76.95
10167;BME280;62970;53.130;8.244;2023-02-12T01:28:17;103727.84;;;6.63;76.92
10167;BME280;62970;53.130;8.244;2023-02-12T01:30:49;103724.34;;;6.63;76.74
10167;BME280;62970;53.130;8.244;2023-02-12T01:33:18;103727.84;;;6.63;76.64
10167;BME280;62970;53.130;8.244;2023-02-12T01:35:48;103726.94;;;6.63;76.84
10167;BME280;62970;53.130;8.244;2023-02-12T01:38:18;103723.47;;;6.62;76.70
10167;BME280;62970;53.130;8.244;2023-02-12T01:40:47;103725.25;;;6.63;76.78
10167;BME280;62970;53.130;8.244;2023-02-12T01:43:16;103725.31;;;6.65;76.95
10167;BME280;62970;53.130;8.244;2023-02-12T01:45:50;103720.13;;;6.65;77.15
10167;BME280;62970;53.130;8.244;2023-02-12T01:48:27;103726.13;;;6.64;76.84
10167;BME280;62970;53.130;8.244;2023-02-12T01:50:57;103717.53;;;6.65;77.26
10167;BME280;62970;53.130;8.244;2023-02-12T01:53:32;103716.59;;;6.63;77.00
10167;BME280;62970;53.130;8.244;2023-02-12T01:56:03;103714.00;;;6.63;77.03
10167;BME280;62970;53.130;8.244;2023-02-12T01:58:37;103708.81;;;6.63;76.89
10167;BME280;62970;53.130;8.244;2023-02-12T02:01:17;103707.84;;;6.61;77.30
10167;BME280;62970;53.130;8.244;2023-02-12T02:03:51;103713.94;;;6.61;77.15
10167;BME280;62970;53.130;8.244;2023-02-12T02:06:27;103700.97;;;6.61;77.02
10167;BME280;62970;53.130;8.244;2023-02-12T02:08:58;103697.53;;;6.62;76.98
10167;BME280;62970;53.130;8.244;2023-02-12T02:11:27;103701.84;;;6.62;77.09
10167;BME280;62970;53.130;8.244;2023-02-12T02:14:08;103700.06;;;6.61;77.16
10167;BME280;62970;53.130;8.244;2023-02-12T02:17:04;103705.25;;;6.61;77.21
10167;BME280;62970;53.130;8.244;2023-02-12T02:20:00;103704.31;;;6.59;76.84
10167;BME280;62970;53.130;8.244;2023-02-12T02:22:39;103716.47;;;6.60;77.26
10167;BME280;62970;53.130;8.244;2023-02-12T02:25:37;103706.03;;;6.58;76.87
10167;BME280;62970;53.130;8.244;2023-02-12T02:28:28;103706.84;;;6.57;77.39
10167;BME280;62970;53.130;8.244;2023-02-12T02:31:11;103703.38;;;6.57;77.27
10167;BME280;62970;53.130;8.244;2023-02-12T02:33:49;103703.38;;;6.57;77.47
10167;BME280;62970;53.130;8.244;2023-02-12T02:36:30;103704.25;;;6.57;77.04
10167;BME280;62970;53.130;8.244;2023-02-12T02:39:12;103698.19;;;6.57;77.10
10167;BME280;62970;53.130;8.244;2023-02-12T02:41:49;103699.91;;;6.56;77.29
10167;BME280;62970;53.130;8.244;2023-02-12T02:44:34;103696.38;;;6.54;76.83
10167;BME280;62970;53.130;8.244;2023-02-12T02:47:11;103691.13;;;6.53;77.14
10167;BME280;62970;53.130;8.244;2023-02-12T02:49:49;103690.22;;;6.52;77.08
10167;BME280;62970;53.130;8.244;2023-02-12T02:52:28;103692.88;;;6.54;77.24
10167;BME280;62970;53.130;8.244;2023-02-12T02:55:04;103698.06;;;6.54;77.07
10167;BME280;62970;53.130;8.244;2023-02-12T02:57:40;103697.19;;;6.53;77.27
10167;BME280;62970;53.130;8.244;2023-02-12T03:00:16;103702.44;;;6.55;77.45
10167;BME280;62970;53.130;8.244;2023-02-12T03:02:54;103698.13;;;6.55;77.78
10167;BME280;62970;53.130;8.244;2023-02-12T03:05:29;103695.59;;;6.57;77.35
10167;BME280;62970;53.130;8.244;2023-02-12T03:08:03;103697.38;;;6.58;77.79
10167;BME280;62970;53.130;8.244;2023-02-12T03:10:37;103700.03;;;6.59;77.59
10167;BME280;62970;53.130;8.244;2023-02-12T03:13:13;103700.06;;;6.61;77.55
10167;BME280;62970;53.130;8.244;2023-02-12T03:15:49;103700.06;;;6.61;77.70
10167;BME280;62970;53.130;8.244;2023-02-12T03:18:28;103696.59;;;6.60;77.46
10167;BME280;62970;53.130;8.244;2023-02-12T03:21:02;103697.53;;;6.62;77.38
10167;BME280;62970;53.130;8.244;2023-02-12T03:23:39;103707.91;;;6.62;77.83
10167;BME280;62970;53.130;8.244;2023-02-12T03:26:14;103700.13;;;6.62;77.77
10167;BME280;62970;53.130;8.244;2023-02-12T03:28:46;103692.41;;;6.64;77.92
10167;BME280;62970;53.130;8.244;2023-02-12T03:31:24;103691.53;;;6.63;77.61
10167;BME280;62970;53.130;8.244;2023-02-12T03:34:08;103685.53;;;6.64;77.44
10167;BME280;62970;53.130;8.244;2023-02-12T03:36:48;103687.22;;;6.64;77.59
10167;BME280;62970;53.130;8.244;2023-02-12T03:39:27;103694.13;;;6.63;77.82
10167;BME280;62970;53.130;8.244;2023-02-12T03:42:03;103698.50;;;6.64;77.66
10167;BME280;62970;53.130;8.244;2023-02-12T03:44:45;103694.13;;;6.63;77.90
10167;BME280;62970;53.130;8.244;2023-02-12T03:47:22;103698.50;;;6.64;77.64
10167;BME280;62970;53.130;8.244;2023-02-12T03:50:03;103701.13;;;6.66;77.83
10167;BME280;62970;53.130;8.244;2023-02-12T03:52:38;103703.78;;;6.67;77.51
10167;BME280;62970;53.130;8.244;2023-02-12T03:55:08;103702.91;;;6.67;77.96
10167;BME280;62970;53.130;8.244;2023-02-12T03:57:41;103712.47;;;6.68;77.70
10167;BME280;62970;53.130;8.244;2023-02-12T04:00:18;103709.88;;;6.68;77.90
10167;BME280;62970;53.130;8.244;2023-02-12T04:02:49;103709.91;;;6.70;77.67
10167;BME280;62970;53.130;8.244;2023-02-12T04:05:26;103714.16;;;6.67;77.76
10167;BME280;62970;53.130;8.244;2023-02-12T04:07:57;103715.94;;;6.68;77.86
10167;BME280;62970;53.130;8.244;2023-02-12T04:10:44;103708.09;;;6.67;77.89
10167;BME280;62970;53.130;8.244;2023-02-12T04:13:27;103712.47;;;6.68;77.69
10167;BME280;62970;53.130;8.244;2023-02-12T04:16:17;103709.88;;;6.68;77.95
10167;BME280;62970;53.130;8.244;2023-02-12T04:18:50;103707.28;;;6.68;77.64
10167;BME280;62970;53.130;8.244;2023-02-12T04:21:41;103700.31;;;6.67;77.63
10167;BME280;62970;53.130;8.244;2023-02-12T04:24:18;103703.78;;;6.67;77.59
10167;BME280;62970;53.130;8.244;2023-02-12T04:26:56;103714.16;;;6.67;77.79
10167;BME280;62970;53.130;8.244;2023-02-12T04:29:34;103714.16;;;6.67;78.05
10167;BME280;62970;53.130;8.244;2023-02-12T04:32:14;103714.16;;;6.67;77.52
10167;BME280;62970;53.130;8.244;2023-02-12T04:34:53;103719.34;;;6.67;77.69
10167;BME280;62970;53.130;8.244;2023-02-12T04:37:37;103717.59;;;6.66;77.82
10167;BME280;62970;53.130;8.244;2023-02-12T04:40:13;103723.72;;;6.68;77.77
10167;BME280;62970;53.130;8.244;2023-02-12T04:42:46;103732.31;;;6.67;77.70
10167;BME280;62970;53.130;8.244;2023-02-12T04:45:22;103731.50;;;6.68;78.16
10167;BME280;62970;53.130;8.244;2023-02-12T04:47:56;103727.19;;;6.69;78.02
10167;BME280;62970;53.130;8.244;2023-02-12T04:50:26;103733.25;;;6.70;77.79
10167;BME280;62970;53.130;8.244;2023-02-12T04:53:01;103727.19;;;6.69;77.79
10167;BME280;62970;53.130;8.244;2023-02-12T04:55:37;103725.41;;;6.68;78.13
10167;BME280;62970;53.130;8.244;2023-02-12T04:58:07;103729.72;;;6.67;77.76
10167;BME280;62970;53.130;8.244;2023-02-12T05:00:39;103730.56;;;6.66;78.05
10167;BME280;62970;53.130;8.244;2023-02-12T05:03:15;103733.13;;;6.66;77.51
10167;BME280;62970;53.130;8.244;2023-02-12T05:05:45;103732.31;;;6.67;77.89
10167;BME280;62970;53.130;8.244;2023-02-12T05:08:19;103733.13;;;6.66;78.07
10167;BME280;62970;53.130;8.244;2023-02-12T05:10:49;103734.91;;;6.67;77.74
10167;BME280;62970;53.130;8.244;2023-02-12T05:13:18;103739.28;;;6.68;77.66
10167;BME280;62970;53.130;8.244;2023-02-12T05:15:48;103736.63;;;6.67;77.49
10167;BME280;62970;53.130;8.244;2023-02-12T05:18:17;103735.72;;;6.66;77.72
10167;BME280;62970;53.130;8.244;2023-02-12T05:20:55;103736.50;;;6.64;77.80
10167;BME280;62970;53.130;8.244;2023-02-12T05:23:29;103727.84;;;6.63;77.49
10167;BME280;62970;53.130;8.244;2023-02-12T05:26:04;103726.00;;;6.61;77.42
10167;BME280;62970;53.130;8.244;2023-02-12T05:28:34;103727.78;;;6.62;77.72
10167;BME280;62970;53.130;8.244;2023-02-12T05:31:05;103729.47;;;6.61;77.60
10167;BME280;62970;53.130;8.244;2023-02-12T05:33:37;103729.38;;;6.58;77.74
10167;BME280;62970;53.130;8.244;2023-02-12T05:36:10;103727.59;;;6.57;77.55
10167;BME280;62970;53.130;8.244;2023-02-12T05:38:43;103726.66;;;6.55;77.46
10167;BME280;62970;53.130;8.244;2023-02-12T05:41:15;103725.75;;;6.55;77.22
10167;BME280;62970;53.130;8.244;2023-02-12T05:43:45;103726.59;;;6.54;77.22
10167;BME280;62970;53.130;8.244;2023-02-12T05:46:16;103734.38;;;6.54;77.56
10167;BME280;62970;53.130;8.244;2023-02-12T05:48:48;103737.84;;;6.54;77.48
10167;BME280;62970;53.130;8.244;2023-02-12T05:51:20;103736.06;;;6.53;77.67
10167;BME280;62970;53.130;8.244;2023-02-12T05:54:03;103736.91;;;6.52;77.29
10167;BME280;62970;53.130;8.244;2023-02-12T05:56:35;103741.25;;;6.53;77.27
10167;BME280;62970;53.130;8.244;2023-02-12T05:59:10;103741.19;;;6.52;77.83
10167;BME280;62970;53.130;8.244;2023-02-12T06:01:43;103745.56;;;6.53;77.48
10167;BME280;62970;53.130;8.244;2023-02-12T06:04:18;103744.69;;;6.52;77.53
10167;BME280;62970;53.130;8.244;2023-02-12T06:06:48;103745.56;;;6.53;77.85
10167;BME280;62970;53.130;8.244;2023-02-12T06:09:20;103746.38;;;6.52;77.67
10167;BME280;62970;53.130;8.244;2023-02-12T06:11:50;103745.63;;;6.54;77.85
10167;BME280;62970;53.130;8.244;2023-02-12T06:14:22;103743.03;;;6.54;77.63
10167;BME280;62970;53.130;8.244;2023-02-12T06:16:51;103744.75;;;6.54;77.60
10167;BME280;62970;53.130;8.244;2023-02-12T06:19:22;103749.03;;;6.53;77.98
10167;BME280;62970;53.130;8.244;2023-02-12T06:21:52;103751.63;;;6.53;77.47
10167;BME280;62970;53.130;8.244;2023-02-12T06:24:25;103745.56;;;6.53;77.65
10167;BME280;62970;53.130;8.244;2023-02-12T06:26:54;103754.22;;;6.53;78.02
10167;BME280;62970;53.130;8.244;2023-02-12T06:29:24;103755.09;;;6.54;77.71
10167;BME280;62970;53.130;8.244;2023-02-12T06:31:53;103751.63;;;6.53;77.92
10167;BME280;62970;53.130;8.244;2023-02-12T06:34:26;103763.78;;;6.54;77.92
10167;BME280;62970;53.130;8.244;2023-02-12T06:36:56;103775.78;;;6.52;77.97
10167;BME280;62970;53.130;8.244;2023-02-12T06:39:28;103774.03;;;6.51;78.02
10167;BME280;62970;53.130;8.244;2023-02-12T06:41:58;103773.19;;;6.52;77.90
10167;BME280;62970;53.130;8.244;2023-02-12T06:44:30;103780.97;;;6.52;77.73
10167;BME280;62970;53.130;8.244;2023-02-12T06:47:08;103783.50;;;6.51;77.79
10167;BME280;62970;53.130;8.244;2023-02-12T06:49:37;103781.78;;;6.51;77.49
10167;BME280;62970;53.130;8.244;2023-02-12T06:52:06;103792.22;;;6.53;77.56
10167;BME280;62970;53.130;8.244;2023-02-12T06:54:39;103800.84;;;6.52;78.03
10167;BME280;62970;53.130;8.244;2023-02-12T06:57:08;103804.31;;;6.52;77.76
10167;BME280;62970;53.130;8.244;2023-02-12T06:59:38;103794.81;;;6.53;77.56
10167;BME280;62970;53.130;8.244;2023-02-12T07:02:10;103799.94;;;6.51;77.94
10167;BME280;62970;53.130;8.244;2023-02-12T07:04:39;103805.19;;;6.53;77.75
10167;BME280;62970;53.130;8.244;2023-02-12T07:07:12;103801.78;;;6.54;77.72
10167;BME280;62970;53.130;8.244;2023-02-12T07:09:44;103804.38;;;6.54;77.98
10167;BME280;62970;53.130;8.244;2023-02-12T07:12:15;103807.03;;;6.55;77.84
10167;BME280;62970;53.130;8.244;2023-02-12T07:14:44;103811.38;;;6.56;77.76
10167;BME280;62970;53.130;8.244;2023-02-12T07:17:15;103821.75;;;6.56;77.74
10167;BME280;62970;53.130;8.244;2023-02-12T07:19:44;103814.94;;;6.58;77.99
10167;BME280;62970;53.130;8.244;2023-02-12T07:22:16;103809.75;;;6.58;78.05
10167;BME280;62970;53.130;8.244;2023-02-12T07:24:50;103813.22;;;6.59;78.06
10167;BME280;62970;53.130;8.244;2023-02-12T07:27:19;103819.34;;;6.61;77.52
10167;BME280;62970;53.130;8.244;2023-02-12T07:29:48;103822.84;;;6.61;77.60
10167;BME280;62970;53.130;8.244;2023-02-12T07:32:17;103822.00;;;6.62;77.81
10167;BME280;62970;53.130;8.244;2023-02-12T07:34:48;103822.84;;;6.61;77.53
10167;BME280;62970;53.130;8.244;2023-02-12T07:37:18;103824.53;;;6.61;77.80
10167;BME280;62970;53.130;8.244;2023-02-12T07:39:50;103830.56;;;6.60;77.55
10167;BME280;62970;53.130;8.244;2023-02-12T07:42:20;103832.38;;;6.62;77.86
10167;BME280;62970;53.130;8.244;2023-02-12T07:44:49;103833.25;;;6.63;77.64
10167;BME280;62970;53.130;8.244;2023-02-12T07:47:18;103833.31;;;6.64;77.68
10167;BME280;62970;53.130;8.244;2023-02-12T07:49:49;103837.69;;;6.65;77.45
10167;BME280;62970;53.130;8.244;2023-02-12T07:52:18;103843.75;;;6.66;77.53
10167;BME280;62970;53.130;8.244;2023-02-12T07:54:50;103845.53;;;6.67;77.99
10167;BME280;62970;53.130;8.244;2023-02-12T07:57:19;103849.06;;;6.69;77.48
10167;BME280;62970;53.130;8.244;2023-02-12T07:59:48;103844.78;;;6.70;77.94
10167;BME280;62970;53.130;8.244;2023-02-12T08:02:17;103853.50;;;6.72;77.85
10167;BME280;62970;53.130;8.244;2023-02-12T08:04:46;103854.38;;;6.72;77.42
10167;BME280;62970;53.130;8.244;2023-02-12T08:07:18;103853.56;;;6.73;77.41
10167;BME280;62970;53.130;8.244;2023-02-12T08:09:52;103852.75;;;6.74;77.61
10167;BME280;62970;53.130;8.244;2023-02-12T08:12:25;103852.88;;;6.77;77.91
10167;BME280;62970;53.130;8.244;2023-02-12T08:14:55;103857.34;;;6.81;77.59
10167;BME280;62970;53.130;8.244;2023-02-12T08:17:24;103853.13;;;6.83;77.53
10167;BME280;62970;53.130;8.244;2023-02-12T08:19:54;103862.66;;;6.84;77.95
10167;BME280;62970;53.130;8.244;2023-02-12T08:22:24;103858.41;;;6.86;77.77
10167;BME280;62970;53.130;8.244;2023-02-12T08:24:56;103854.19;;;6.88;77.57
10167;BME280;62970;53.130;8.244;2023-02-12T08:27:26;103856.91;;;6.91;77.80
10167;BME280;62970;53.130;8.244;2023-02-12T08:29:57;103862.22;;;6.94;77.89
10167;BME280;62970;53.130;8.244;2023-02-12T08:32:26;103865.75;;;6.96;77.69
10167;BME280;62970;53.130;8.244;2023-02-12T08:35:01;103863.22;;;6.98;77.79
10167;BME280;62970;53.130;8.244;2023-02-12T08:37:30;103863.34;;;7.01;77.67
10167;BME280;62970;53.130;8.244;2023-02-12T08:40:06;103862.56;;;7.04;77.99
10167;BME280;62970;53.130;8.244;2023-02-12T08:42:38;103857.50;;;7.07;77.70
10167;BME280;62970;53.130;8.244;2023-02-12T08:45:11;103861.09;;;7.10;77.75
10167;BME280;62970;53.130;8.244;2023-02-12T08:47:40;103863.88;;;7.15;78.08
10167;BME280;62970;53.130;8.244;2023-02-12T08:50:10;103863.13;;;7.17;77.52
10167;BME280;62970;53.130;8.244;2023-02-12T08:52:39;103869.34;;;7.21;78.03
10167;BME280;62970;53.130;8.244;2023-02-12T08:55:13;103871.13;;;7.22;77.61
10167;BME280;62970;53.130;8.244;2023-02-12T08:57:42;103872.88;;;7.23;77.62
10167;BME280;62970;53.130;8.244;2023-02-12T09:00:14;103873.00;;;7.26;77.47
10167;BME280;62970;53.130;8.244;2023-02-12T09:02:43;103871.28;;;7.26;77.34
10167;BME280;62970;53.130;8.244;2023-02-12T09:05:15;103872.25;;;7.28;77.59
10167;BME280;62970;53.130;8.244;2023-02-12T09:07:48;103870.66;;;7.32;77.30
10167;BME280;62970;53.130;8.244;2023-02-12T09:10:28;103874.25;;;7.36;77.45
10167;BME280;62970;53.130;8.244;2023-02-12T09:12:57;103875.41;;;7.42;77.44
10167;BME280;62970;53.130;8.244;2023-02-12T09:15:26;103880.78;;;7.47;77.83
10167;BME280;62970;53.130;8.244;2023-02-12T09:17:55;103871.38;;;7.50;77.34
10167;BME280;62970;53.130;8.244;2023-02-12T09:20:29;103876.63;;;7.52;77.71
10167;BME280;62970;53.130;8.244;2023-02-12T09:23:01;103893.16;;;7.54;77.78
10167;BME280;62970;53.130;8.244;2023-02-12T09:25:34;103876.81;;;7.56;77.37
10167;BME280;62970;53.130;8.244;2023-02-12T09:28:04;103888.97;;;7.57;77.27
10167;BME280;62970;53.130;8.244;2023-02-12T09:30:34;103894.28;;;7.60;77.46
10167;BME280;62970;53.130;8.244;2023-02-12T09:33:05;103884.78;;;7.61;77.64
10167;BME280;62970;53.130;8.244;2023-02-12T09:35:37;103890.13;;;7.66;77.33
10167;BME280;62970;53.130;8.244;2023-02-12T09:38:08;103897.16;;;7.68;77.95
10167;BME280;62970;53.130;8.244;2023-02-12T09:41:04;103894.69;;;7.71;77.80
10167;BME280;62970;53.130;8.244;2023-02-12T09:43:43;103889.59;;;7.74;77.70
10167;BME280;62970;53.130;8.244;2023-02-12T09:46:20;103889.75;;;7.79;77.91
10167;BME280;62970;53.130;8.244;2023-02-12T09:49:07;103896.78;;;7.81;77.58
10167;BME280;62970;53.130;8.244;2023-02-12T09:51:40;103894.31;;;7.84;77.75
10167;BME280;62970;53.130;8.244;2023-02-12T09:54:14;103898.72;;;7.87;77.46
10167;BME280;62970;53.130;8.244;2023-02-12T09:56:51;103900.56;;;7.89;77.23
10167;BME280;62970;53.130;8.244;2023-02-12T09:59:31;103903.25;;;7.92;77.77
10167;BME280;62970;53.130;8.244;2023-02-12T10:02:05;103903.22;;;7.91;77.33
10167;BME280;62970;53.130;8.244;2023-02-12T10:04:41;103911.94;;;7.93;77.13
10167;BME280;62970;53.130;8.244;2023-02-12T10:07:25;103908.47;;;7.92;77.37
10167;BME280;62970;53.130;8.244;2023-02-12T10:10:11;103915.44;;;7.93;77.50
10167;BME280;62970;53.130;8.244;2023-02-12T10:12:53;103914.66;;;7.96;77.16
10167;BME280;62970;53.130;8.244;2023-02-12T10:15:37;103916.47;;;7.99;77.61
10167;BME280;62970;53.130;8.244;2023-02-12T10:18:55;103921.84;;;8.03;77.47
10167;BME280;62970;53.130;8.244;2023-02-12T10:21:50;103926.22;;;8.04;77.35
10167;BME280;62970;53.130;8.244;2023-02-12T10:25:02;103921.94;;;8.06;77.58
10167;BME280;62970;53.130;8.244;2023-02-12T10:27:40;103931.56;;;8.09;77.31
10167;BME280;62970;53.130;8.244;2023-02-12T10:30:21;103922.06;;;8.09;77.53
10167;BME280;62970;53.130;8.244;2023-02-12T10:33:00;103921.19;;;8.09;77.04
10167;BME280;62970;53.130;8.244;2023-02-12T10:35:32;103921.91;;;8.05;76.64
10167;BME280;62970;53.130;8.244;2023-02-12T10:38:10;103923.44;;;8.00;77.06
10167;BME280;62970;53.130;8.244;2023-02-12T10:40:44;103931.19;;;7.98;77.08
10167;BME280;62970;53.130;8.244;2023-02-12T10:43:17;103931.19;;;7.98;77.08
10167;BME280;62970;53.130;8.244;2023-02-12T10:45:51;103925.88;;;7.95;77.18
10167;BME280;62970;53.130;8.244;2023-02-12T10:48:26;103923.09;;;7.90;77.08
10167;BME280;62970;53.130;8.244;2023-02-12T10:51:15;103924.00;;;7.91;76.65
10167;BME280;62970;53.130;8.244;2023-02-12T10:53:54;103929.25;;;7.92;77.20
10167;BME280;62970;53.130;8.244;2023-02-12T10:56:27;103927.59;;;7.94;77.18
10167;BME280;62970;53.130;8.244;2023-02-12T10:59:00;103918.09;;;7.95;76.90
10167;BME280;62970;53.130;8.244;2023-02-12T11:01:36;103925.94;;;7.97;77.20
10167;BME280;62970;53.130;8.244;2023-02-12T11:04:23;103917.31;;;7.98;77.11
10167;BME280;62970;53.130;8.244;2023-02-12T11:07:00;103926.81;;;7.97;76.79
10167;BME280;62970;53.130;8.244;2023-02-12T11:09:34;103925.16;;;7.99;77.04
10167;BME280;62970;53.130;8.244;2023-02-12T11:12:22;103917.25;;;7.96;76.59
10167;BME280;62970;53.130;8.244;2023-02-12T11:14:56;103912.88;;;7.95;76.86
10167;BME280;62970;53.130;8.244;2023-02-12T11:17:34;103912.06;;;7.96;76.86
10167;BME280;62970;53.130;8.244;2023-02-12T11:20:22;103917.38;;;7.99;76.81
10167;BME280;62970;53.130;8.244;2023-02-12T11:22:57;103913.31;;;8.07;77.29
10167;BME280;62970;53.130;8.244;2023-02-12T11:25:32;103908.47;;;8.16;77.13
10167;BME280;62970;53.130;8.244;2023-02-12T11:28:13;103911.44;;;8.27;77.63
10167;BME280;62970;53.130;8.244;2023-02-12T11:30:57;103897.09;;;8.38;77.58
10167;BME280;62970;53.130;8.244;2023-02-12T11:33:33;103901.84;;;8.50;77.60
10167;BME280;62970;53.130;8.244;2023-02-12T11:36:12;103894.28;;;8.57;77.39
10167;BME280;62970;53.130;8.244;2023-02-12T11:38:52;103898.91;;;8.66;76.95
10167;BME280;62970;53.130;8.244;2023-02-12T11:41:29;103903.34;;;8.69;76.81
10167;BME280;62970;53.130;8.244;2023-02-12T11:44:08;103894.75;;;8.71;77.10
10167;BME280;62970;53.130;8.244;2023-02-12T11:46:44;103897.59;;;8.77;77.17
10167;BME280;62970;53.130;8.244;2023-02-12T11:49:22;103896.06;;;8.84;76.68
10167;BME280;62970;53.130;8.244;2023-02-12T11:51:52;103886.69;;;8.89;76.43
10167;BME280;62970;53.130;8.244;2023-02-12T11:54:24;103891.22;;;8.95;76.79
10167;BME280;62970;53.130;8.244;2023-02-12T11:56:54;103881.94;;;9.03;76.46
10167;BME280;62970;53.130;8.244;2023-02-12T12:15:09;103880.50;;;9.12;75.63
10167;BME280;62970;53.130;8.244;2023-02-12T12:18:01;103879.63;;;9.12;76.06
10167;BME280;62970;53.130;8.244;2023-02-12T13:36:25;103830.63;;;9.57;74.04
10167;BME280;62970;53.130;8.244;2023-02-12T13:51:59;103823.03;;;9.65;74.03
10167;BME280;62970;53.130;8.244;2023-02-12T14:20:38;103823.88;;;9.64;73.52
10167;BME280;62970;53.130;8.244;2023-02-12T15:02:23;103834.84;;;9.23;73.70
10167;BME280;62970;53.130;8.244;2023-02-12T15:05:00;103835.69;;;9.22;73.21
10167;BME280;62970;53.130;8.244;2023-02-12T15:07:36;103836.56;;;9.23;73.85
10167;BME280;62970;53.130;8.244;2023-02-12T15:10:16;103835.63;;;9.21;73.72
10167;BME280;62970;53.130;8.244;2023-02-12T15:12:50;103838.16;;;9.18;73.50
10167;BME280;62970;53.130;8.244;2023-02-12T15:28:27;103828.25;;;9.06;73.63
10167;BME280;62970;53.130;8.244;2023-02-12T15:31:08;103827.28;;;9.03;73.51
10167;BME280;62970;53.130;8.244;2023-02-12T15:33:46;103826.38;;;9.02;73.40
10167;BME280;62970;53.130;8.244;2023-02-12T15:36:23;103826.38;;;9.02;73.91
10167;BME280;62970;53.130;8.244;2023-02-12T15:38:58;103821.97;;;9.00;73.38
10167;BME280;62970;53.130;8.244;2023-02-12T15:41:37;103821.81;;;8.95;73.64
10167;BME280;62970;53.130;8.244;2023-02-12T15:57:18;103824.16;;;8.86;73.81
10167;BME280;62970;53.130;8.244;2023-02-12T15:59:51;103825.81;;;8.84;73.85
10167;BME280;62970;53.130;8.244;2023-02-12T16:02:25;103819.63;;;8.80;73.66
10167;BME280;62970;53.130;8.244;2023-02-12T16:05:02;103819.63;;;8.80;74.48
10167;BME280;62970;53.130;8.244;2023-02-12T16:07:36;103822.22;;;8.80;73.87
10167;BME280;62970;53.130;8.244;2023-02-12T16:10:13;103817.88;;;8.79;73.91
10167;BME280;62970;53.130;8.244;2023-02-12T17:20:06;103859.25;;;8.46;74.74
10167;BME280;62970;53.130;8.244;2023-02-12T17:22:38;103860.00;;;8.44;75.02
10167;BME280;62970;53.130;8.244;2023-02-12T17:25:09;103868.69;;;8.44;74.74
10167;BME280;62970;53.130;8.244;2023-02-12T17:32:51;103871.19;;;8.41;75.18
10167;BME280;62970;53.130;8.244;2023-02-12T17:35:23;103868.50;;;8.38;75.20
10167;BME280;62970;53.130;8.244;2023-02-12T17:37:55;103878.00;;;8.38;75.23
10167;BME280;62970;53.130;8.244;2023-02-12T17:40:25;103882.31;;;8.37;74.88
10167;BME280;62970;53.130;8.244;2023-02-12T17:42:54;103879.63;;;8.34;75.05
10167;BME280;62970;53.130;8.244;2023-02-12T17:45:25;103876.88;;;8.30;74.63
10167;BME280;62970;53.130;8.244;2023-02-12T17:47:57;103882.84;;;8.27;75.13
10167;BME280;62970;53.130;8.244;2023-02-12T17:50:30;103877.53;;;8.24;74.83
10167;BME280;62970;53.130;8.244;2023-02-12T17:53:00;103888.75;;;8.23;75.38
10167;BME280;62970;53.130;8.244;2023-02-12T17:55:32;103887.81;;;8.21;75.26
10167;BME280;62970;53.130;8.244;2023-02-12T17:58:01;103887.72;;;8.18;75.06
10167;BME280;62970;53.130;8.244;2023-02-12T18:00:31;103889.38;;;8.16;75.46
10167;BME280;62970;53.130;8.244;2023-02-12T18:03:00;103890.22;;;8.15;75.20
10167;BME280;62970;53.130;8.244;2023-02-12T18:05:32;103889.28;;;8.13;75.66